Time;durP1;ratioP1;P1;durP2;ratioP2;P2;SDS_P1;SDS_P2;PMS_P1;PMS_P2;Temp;Humidity;BMP_temperature;BMP_pressure;BME280_temperature;BME280_humidity;BME280_pressure;Samples;Min_cycle;Max_cycle;Signal;HPM_P1;HPM_P2
2022/12/12 00:01:28;;;;;;;56.15;18.60;;;;;;;;;;4972309;28;20102;-83
2022/12/12 00:03:54;;;;;;;51.20;17.40;;;;;;;;;;4987719;28;20109;-82
2022/12/12 00:06:21;;;;;;;45.38;17.92;;;;;;;;;;4984541;28;20069;-80
2022/12/12 00:08:47;;;;;;;57.08;18.95;;;;;;;;;;4971646;28;20177;-83
2022/12/12 00:11:13;;;;;;;43.28;15.75;;;;;;;;;;4970443;28;20030;-83
2022/12/12 00:13:40;;;;;;;48.03;16.67;;;;;;;;;;4971471;28;20035;-83
2022/12/12 00:16:07;;;;;;;41.67;15.77;;;1.00;99.90;;;;;;4972055;28;20074;-85
2022/12/12 00:18:35;;;;;;;47.05;17.92;;;;;;;;;;4966301;28;20029;-84
2022/12/12 00:21:02;;;;;;;44.88;15.77;;;;;;;;;;4979839;28;20031;-85
2022/12/12 00:23:28;;;;;;;41.35;15.30;;;;;;;;;;4983280;28;20027;-84
2022/12/12 00:25:59;;;;;;;42.17;16.02;;;;;;;;;;4961909;28;20039;-83
2022/12/12 00:28:25;;;;;;;;;;;1.00;99.90;;;;;;4984706;28;20042;-84
2022/12/12 00:30:51;;;;;;;42.95;15.82;;;;;;;;;;4966704;28;20335;-83
2022/12/12 00:33:17;;;;;;;46.00;15.85;;;;;;;;;;4976318;28;20122;-85
2022/12/12 00:35:43;;;;;;;40.88;16.23;;;;;;;;;;4968126;28;20047;-83
2022/12/12 00:38:09;;;;;;;41.25;15.98;;;;;;;;;;4981686;28;20035;-85
2022/12/12 00:40:35;;;;;;;42.20;14.98;;;;;;;;;;4966010;28;20039;-83
2022/12/12 00:43:01;;;;;;;41.75;15.13;;;;;;;;;;4970309;28;20054;-83
2022/12/12 00:45:27;;;;;;;42.85;15.38;;;;;;;;;;4975213;28;20038;-82
2022/12/12 00:47:53;;;;;;;44.22;15.48;;;0.90;99.90;;;;;;4967002;28;20043;-86
2022/12/12 00:50:19;;;;;;;36.47;15.43;;;;;;;;;;4972615;28;20027;-83
2022/12/12 00:52:45;;;;;;;41.85;15.43;;;;;;;;;;4967132;28;20053;-85
2022/12/12 00:55:11;;;;;;;38.65;14.45;;;0.80;99.90;;;;;;4987788;28;20455;-84
2022/12/12 00:57:37;;;;;;;39.42;14.70;;;;;;;;;;4966205;28;20051;-81
2022/12/12 01:00:06;;;;;;;40.53;15.13;;;0.80;99.90;;;;;;4987089;28;20038;-85
2022/12/12 01:02:33;;;;;;;45.15;16.00;;;;;;;;;;4990298;28;20030;-82
2022/12/12 01:04:59;;;;;;;39.63;14.82;;;;;;;;;;4996358;28;20122;-82
2022/12/12 01:07:24;;;;;;;36.88;13.95;;;;;;;;;;4977866;28;20030;-82
2022/12/12 01:09:50;;;;;;;38.08;14.10;;;;;;;;;;4977624;28;20039;-83
2022/12/12 01:12:16;;;;;;;41.42;14.55;;;;;;;;;;4964548;28;20038;-80
2022/12/12 01:14:42;;;;;;;40.53;14.25;;;;;;;;;;4965285;28;20365;-84
2022/12/12 01:17:09;;;;;;;36.22;13.75;;;;;;;;;;4986953;28;20031;-85
2022/12/12 01:19:35;;;;;;;33.22;12.63;;;;;;;;;;4970604;28;20038;-87
2022/12/12 01:22:01;;;;;;;35.78;12.82;;;;;;;;;;4977960;28;20122;-86
2022/12/12 01:24:27;;;;;;;34.25;14.43;;;;;;;;;;4983733;28;20022;-87
2022/12/12 01:26:53;;;;;;;36.13;13.77;;;;;;;;;;4986699;28;20035;-85
2022/12/12 01:29:19;;;;;;;32.70;13.23;;;;;;;;;;4963529;28;20026;-82
2022/12/12 01:31:45;;;;;;;36.70;12.90;;;;;;;;;;4981119;28;20042;-83
2022/12/12 01:34:11;;;;;;;39.85;14.05;;;;;;;;;;4961091;28;20039;-86
2022/12/12 01:36:37;;;;;;;29.98;12.82;;;;;;;;;;4981883;28;20090;-85
2022/12/12 01:39:04;;;;;;;39.53;15.27;;;;;;;;;;4962921;28;20046;-87
2022/12/12 01:41:30;;;;;;;35.25;12.85;;;;;;;;;;4962396;28;20366;-83
2022/12/12 01:44:01;;;;;;;36.15;13.30;;;0.80;99.90;;;;;;4970568;28;20077;-83
2022/12/12 01:46:31;;;;;;;35.08;13.18;;;;;;;;;;4980319;28;20491;-86
2022/12/12 01:49:04;;;;;;;36.72;13.23;;;0.90;99.90;;;;;;4982852;28;20035;-84
2022/12/12 01:51:30;;;;;;;35.63;13.57;;;;;;;;;;4982917;28;20031;-85
2022/12/12 01:53:59;;;;;;;30.92;12.93;;;;;;;;;;4971059;28;20033;-87
2022/12/12 01:56:25;;;;;;;31.23;12.73;;;;;;;;;;4985521;28;20086;-82
2022/12/12 01:58:54;;;;;;;32.25;13.05;;;0.90;99.90;;;;;;4969830;28;20039;-89
2022/12/12 02:01:20;;;;;;;32.05;12.45;;;;;;;;;;4969573;28;20045;-83
2022/12/12 02:03:47;;;;;;;31.20;12.88;;;0.80;99.90;;;;;;4977376;28;20054;-88
2022/12/12 02:06:18;;;;;;;39.92;13.45;;;0.80;99.90;;;;;;4973220;28;20034;-84
2022/12/12 02:08:45;;;;;;;34.20;13.32;;;;;;;;;;4969802;28;20058;-85
2022/12/12 02:11:11;;;;;;;35.22;13.32;;;;;;;;;;4990995;28;20026;-86
2022/12/12 02:13:38;;;;;;;37.17;13.85;;;;;;;;;;4985420;28;20090;-89
2022/12/12 02:16:10;;;;;;;34.47;13.43;;;;;;;;;;5001814;28;20058;-86
2022/12/12 02:18:42;;;;;;;33.22;12.60;;;;;;;;;;4971129;28;20027;-86
2022/12/12 02:21:27;;;;;;;37.28;13.88;;;;;;;;;;4986978;28;20039;-85
2022/12/12 02:24:02;;;;;;;30.73;12.73;;;;;;;;;;4991787;28;20240;-88
2022/12/12 02:26:34;;;;;;;32.83;13.13;;;;;;;;;;4987902;28;20062;-86
2022/12/12 02:29:30;;;;;;;34.22;12.70;;;1.00;99.90;;;;;;4965700;28;20023;-87
2022/12/12 02:32:10;;;;;;;32.30;12.40;;;;;;;;;;4963945;28;20409;-83
2022/12/12 02:34:36;;;;;;;33.13;13.45;;;;;;;;;;4983311;28;20534;-88
2022/12/12 02:37:24;;;;;;;33.13;13.00;;;;;;;;;;4971370;28;20035;-83
2022/12/12 02:40:19;;;;;;;35.53;12.68;;;0.80;99.90;;;;;;4978587;28;20030;-88
2022/12/12 02:42:55;;;;;;;37.10;13.85;;;;;;;;;;4967774;28;20030;-85
2022/12/12 02:45:36;;;;;;;37.60;14.00;;;0.90;99.90;;;;;;4977655;28;20042;-81
2022/12/12 02:48:22;;;;;;;34.63;13.00;;;0.90;99.90;;;;;;4965066;28;20034;-87
2022/12/12 02:50:52;;;;;;;41.47;15.00;;;0.90;99.90;;;;;;4961893;28;20105;-83
2022/12/12 02:53:18;;;;;;;37.85;14.30;;;;;;;;;;4966632;28;20128;-84
2022/12/12 02:55:44;;;;;;;38.08;14.07;;;;;;;;;;4980713;28;20062;-84
2022/12/12 02:58:11;;;;;;;37.30;13.77;;;;;;;;;;4977987;28;20038;-88
2022/12/12 03:00:41;;;;;;;38.85;14.32;;;;;;;;;;4985350;28;20058;-83
2022/12/12 03:08:48;;;;;;;35.33;13.13;;;;;;;;;;4983043;28;20043;-89
2022/12/12 03:11:17;;;;;;;31.55;12.90;;;;;;;;;;4987513;28;20015;-86
2022/12/12 03:13:49;;;;;;;34.65;13.70;;;;;;;;;;4997247;28;20038;-84
2022/12/12 03:16:24;;;;;;;38.78;14.02;;;;;;;;;;4970732;28;20023;-82
2022/12/12 03:18:50;;;;;;;37.72;13.68;;;;;;;;;;4991027;28;20034;-87
2022/12/12 03:21:55;;;;;;;36.75;14.98;;;0.80;99.90;;;;;;4988557;28;20102;-84
2022/12/12 03:24:54;;;;;;;35.10;13.80;;;0.80;99.90;;;;;;4941412;28;20054;-81
2022/12/12 03:27:52;;;;;;;42.78;15.60;;;0.90;99.90;;;;;;4975663;28;20038;-87
2022/12/12 03:30:19;;;;;;;44.70;15.18;;;0.90;99.90;;;;;;4976875;28;20393;-83
2022/12/12 03:32:49;;;;;;;42.85;15.55;;;;;;;;;;4976093;28;20019;-85
2022/12/12 03:35:17;;;;;;;41.55;14.93;;;;;;;;;;4984273;28;20026;-88
2022/12/12 03:37:59;;;;;;;38.30;13.80;;;0.80;99.90;;;;;;4995686;28;20049;-84
2022/12/12 03:40:48;;;;;;;38.30;15.10;;;0.80;99.90;;;;;;4991613;28;20011;-87
2022/12/12 03:43:50;;;;;;;37.60;13.68;;;0.80;99.90;;;;;;4979767;28;20023;-86
2022/12/12 03:46:22;;;;;;;36.55;14.35;;;0.90;99.90;;;;;;4980566;28;20050;-88
2022/12/12 03:48:55;;;;;;;35.78;13.80;;;2.50;99.90;;;;;;4977857;28;20012;-86
2022/12/12 03:51:25;;;;;;;34.40;14.23;;;;;;;;;;4966392;28;20050;-84
2022/12/12 03:53:54;;;;;;;36.95;13.88;;;;;;;;;;4972028;28;20133;-86
2022/12/12 03:56:39;;;;;;;35.72;13.90;;;;;;;;;;4958565;28;20027;-86
2022/12/12 03:59:05;;;;;;;32.38;12.45;;;;;;;;;;4988748;28;20043;-84
2022/12/12 04:01:46;;;;;;;29.48;11.93;;;;;;;;;;4980431;28;20042;-86
2022/12/12 04:04:20;;;;;;;37.70;12.88;;;;;;;;;;4959529;28;20148;-83
2022/12/12 04:07:11;;;;;;;38.58;12.73;;;0.90;99.90;;;;;;4979353;28;20018;-87
2022/12/12 04:15:16;;;;;;;37.63;14.40;;;;;;;;;;4981682;28;20038;-86
2022/12/12 04:17:42;;;;;;;41.70;14.57;;;;;;;;;;4964547;28;20011;-88
2022/12/12 04:23:14;;;;;;;35.55;13.52;;;;;;;;;;4981864;28;20030;-86
2022/12/12 04:28:42;;;;;;;32.25;12.70;;;0.60;99.90;;;;;;4978964;28;20074;-84
2022/12/12 04:31:08;;;;;;;36.97;13.30;;;;;;;;;;4976198;28;20031;-86
2022/12/12 04:33:39;;;;;;;30.90;12.30;;;;;;;;;;4978163;28;20050;-84
2022/12/12 04:36:10;;;;;;;33.22;12.48;;;0.70;99.90;;;;;;4978587;28;20111;-88
2022/12/12 04:38:37;;;;;;;;;;;0.70;99.90;;;;;;4964855;28;20027;-85
2022/12/12 04:41:04;;;;;;;28.90;11.63;;;;;;;;;;4983462;28;20360;-85
2022/12/12 04:43:35;;;;;;;34.83;13.77;;;;;;;;;;4960394;28;20029;-85
2022/12/12 04:46:04;;;;;;;32.70;11.98;;;;;;;;;;4967095;28;20066;-88
2022/12/12 04:48:50;;;;;;;33.13;13.07;;;0.50;99.90;;;;;;4985759;28;20043;-85
2022/12/12 04:51:18;;;;;;;36.95;12.98;;;;;;;;;;4971615;28;21138;-88
2022/12/12 04:53:54;;;;;;;33.47;12.82;;;;;;;;;;4964301;28;20042;-84
2022/12/12 04:56:23;;;;;;;33.95;13.00;;;;;;;;;;4984013;28;20015;-88
2022/12/12 04:58:49;;;;;;;31.45;11.70;;;;;;;;;;4965416;28;20027;-81
2022/12/12 05:01:20;;;;;;;35.28;12.85;;;;;;;;;;4966943;28;20082;-85
2022/12/12 05:03:46;;;;;;;31.95;12.88;;;;;;;;;;4983144;28;20030;-86
2022/12/12 05:06:14;;;;;;;30.77;12.82;;;;;;;;;;4985221;28;21669;-83
2022/12/12 05:08:42;;;;;;;31.58;12.60;;;;;;;;;;4985176;28;20062;-84
2022/12/12 05:11:08;;;;;;;30.25;12.43;;;;;;;;;;4974860;28;20019;-88
2022/12/12 05:13:39;;;;;;;30.98;12.63;;;;;;;;;;4971986;28;20917;-85
2022/12/12 05:16:26;;;;;;;31.05;12.30;;;0.30;99.90;;;;;;4969134;28;20033;-89
2022/12/12 05:18:52;;;;;;;32.60;12.38;;;;;;;;;;4968779;28;20030;-87
2022/12/12 05:21:19;;;;;;;33.17;11.43;;;;;;;;;;4984385;28;20043;-85
2022/12/12 05:23:45;;;;;;;29.90;12.43;;;;;;;;;;4990496;28;20039;-83
2022/12/12 05:26:25;;;;;;;29.90;12.25;;;;;;;;;;4987922;28;20030;-85
2022/12/12 05:28:51;;;;;;;30.58;11.73;;;;;;;;;;4962675;28;20067;-84
2022/12/12 05:31:17;;;;;;;28.73;11.10;;;;;;;;;;4966088;28;20095;-84
2022/12/12 05:33:43;;;;;;;31.45;12.05;;;;;;;;;;4967510;28;20034;-84
2022/12/12 05:36:10;;;;;;;30.15;10.50;;;;;;;;;;4985835;28;20022;-81
2022/12/12 05:38:36;;;;;;;23.75;9.35;;;;;;;;;;4966585;28;20023;-81
2022/12/12 05:41:02;;;;;;;30.25;11.50;;;;;;;;;;4963262;28;20019;-85
2022/12/12 05:43:28;;;;;;;29.90;11.52;;;;;;;;;;4965654;28;20054;-83
2022/12/12 05:45:54;;;;;;;29.17;11.68;;;;;;;;;;4957397;28;20027;-82
2022/12/12 05:48:20;;;;;;;28.38;11.35;;;;;;;;;;4969975;28;20181;-84
2022/12/12 05:50:46;;;;;;;36.40;12.27;;;;;;;;;;4966392;28;20036;-83
2022/12/12 05:53:12;;;;;;;29.27;10.93;;;;;;;;;;4959990;28;20034;-83
2022/12/12 05:55:38;;;;;;;35.90;12.30;;;;;;;;;;4983316;28;20121;-84
2022/12/12 05:58:04;;;;;;;29.25;11.95;;;;;;;;;;4949599;28;22337;-83
2022/12/12 06:00:30;;;;;;;28.48;11.25;;;;;;;;;;4956438;28;20071;-82
2022/12/12 06:02:57;;;;;;;26.75;11.05;;;;;;;;;;4948127;28;20046;-84
2022/12/12 06:05:23;;;;;;;30.20;11.48;;;;;;;;;;4979797;28;20236;-82
2022/12/12 06:07:49;;;;;;;28.58;10.43;;;;;;;;;;4981186;28;20068;-84
2022/12/12 06:10:14;;;;;;;33.00;12.30;;;;;;;;;;4968885;28;20035;-83
2022/12/12 06:12:40;;;;;;;28.75;11.20;;;;;;;;;;4982130;28;20054;-82
2022/12/12 06:15:07;;;;;;;29.63;11.63;;;;;;;;;;4981833;28;20019;-84
2022/12/12 06:17:33;;;;;;;34.58;12.23;;;;;;;;;;4967746;28;20363;-84
2022/12/12 06:19:59;;;;;;;27.17;11.27;;;;;;;;;;4986131;28;20090;-84
2022/12/12 06:22:25;;;;;;;25.48;10.95;;;;;;;;;;4990428;28;20031;-83
2022/12/12 06:24:51;;;;;;;29.70;11.32;;;;;;;;;;4996437;28;20054;-82
2022/12/12 06:27:17;;;;;;;28.38;12.35;;;;;;;;;;4964271;28;20061;-82
2022/12/12 06:29:43;;;;;;;30.85;11.95;;;;;;;;;;4967308;28;20034;-82
2022/12/12 06:32:16;;;;;;;27.83;10.45;;;0.40;99.90;;;;;;4965683;28;20030;-81
2022/12/12 06:34:42;;;;;;;27.67;11.65;;;;;;;;;;4982371;28;20539;-81
2022/12/12 06:37:08;;;;;;;28.50;11.52;;;;;;;;;;4992199;28;20031;-84
2022/12/12 06:39:34;;;;;;;30.13;11.38;;;;;;;;;;4978027;28;20031;-82
2022/12/12 06:42:00;;;;;;;31.48;11.88;;;;;;;;;;4962561;28;20099;-80
2022/12/12 06:44:26;;;;;;;29.02;11.02;;;;;;;;;;4968880;28;20026;-81
2022/12/12 06:46:52;;;;;;;28.15;11.77;;;;;;;;;;4950333;28;20046;-82
2022/12/12 06:49:18;;;;;;;27.35;11.77;;;;;;;;;;4977784;28;20058;-82
2022/12/12 06:51:44;;;;;;;29.63;11.60;;;0.30;99.90;;;;;;4950829;28;20034;-82
2022/12/12 06:54:15;;;;;;;31.77;11.88;;;0.20;99.90;;;;;;4965421;28;20118;-79
2022/12/12 06:56:40;;;;;;;29.20;11.30;;;0.20;99.90;;;;;;4942825;28;20039;-79
2022/12/12 06:59:06;;;;;;;34.72;11.93;;;;;;;;;;4971602;28;20046;-83
2022/12/12 07:01:33;;;;;;;31.48;11.65;;;;;;;;;;4943007;28;20046;-83
2022/12/12 07:03:59;;;;;;;28.42;11.40;;;;;;;;;;4971178;28;20123;-83
2022/12/12 07:06:25;;;;;;;29.27;11.10;;;;;;;;;;4963517;28;20277;-83
2022/12/12 07:08:51;;;;;;;26.95;10.40;;;0.30;99.90;;;;;;4967998;28;20120;-81
2022/12/12 07:11:20;;;;;;;31.67;11.40;;;0.30;99.90;;;;;;4964506;28;20027;-83
2022/12/12 07:13:46;;;;;;;21.20;9.52;;;;;;;;;;4973449;28;20043;-84
2022/12/12 07:16:12;;;;;;;23.15;9.40;;;;;;;;;;4966623;28;20041;-84
2022/12/12 07:18:39;;;;;;;25.38;9.55;;;;;;;;;;4955442;28;20034;-84
2022/12/12 07:21:06;;;;;;;22.05;9.00;;;;;;;;;;4934728;28;20110;-82
2022/12/12 07:23:32;;;;;;;24.45;9.85;;;;;;;;;;4969365;28;20038;-81
2022/12/12 07:25:58;;;;;;;26.33;11.15;;;;;;;;;;4970355;28;20606;-82
2022/12/12 07:28:24;;;;;;;28.75;11.13;;;;;;;;;;4969301;28;20096;-82
2022/12/12 07:30:50;;;;;;;28.02;11.05;;;;;;;;;;4955438;28;20023;-85
2022/12/12 07:33:16;;;;;;;27.05;10.45;;;;;;;;;;4966286;28;20031;-83
2022/12/12 07:35:43;;;;;;;25.75;10.30;;;0.30;99.90;;;;;;4958508;28;20039;-81
2022/12/12 07:38:09;;;;;;;26.75;10.63;;;;;;;;;;4954892;28;20046;-81
2022/12/12 07:40:35;;;;;;;22.58;10.23;;;;;;;;;;4973398;28;20034;-81
2022/12/12 07:43:01;;;;;;;26.38;10.02;;;;;;;;;;4963062;28;20038;-82
2022/12/12 07:45:27;;;;;;;25.42;10.38;;;;;;;;;;4974881;28;20066;-84
2022/12/12 07:47:54;;;;;;;26.92;10.55;;;;;;;;;;4955615;28;20049;-82
2022/12/12 07:50:20;;;;;;;25.65;10.27;;;;;;;;;;4971439;28;20034;-83
2022/12/12 07:52:46;;;;;;;27.95;11.02;;;;;;;;;;4978090;28;20034;-82
2022/12/12 07:55:12;;;;;;;29.60;11.45;;;;;;;;;;4974271;28;20023;-83
2022/12/12 07:57:40;;;;;;;24.40;11.00;;;;;;;;;;4958032;28;20544;-82
2022/12/12 08:00:06;;;;;;;27.40;10.63;;;;;;;;;;4964512;28;20034;-82
2022/12/12 08:02:32;;;;;;;30.63;11.63;;;;;;;;;;4969215;28;20037;-83
2022/12/12 08:04:58;;;;;;;28.83;12.02;;;;;;;;;;4979256;28;20037;-83
2022/12/12 08:07:24;;;;;;;24.05;10.52;;;;;;;;;;4978836;28;20034;-82
2022/12/12 08:09:50;;;;;;;32.10;12.18;;;;;;;;;;4959146;28;20039;-82
2022/12/12 08:12:16;;;;;;;28.02;10.63;;;;;;;;;;4941642;28;20058;-81
2022/12/12 08:14:42;;;;;;;26.45;10.20;;;;;;;;;;4973540;28;20027;-81
2022/12/12 08:17:08;;;;;;;25.63;10.27;;;;;;;;;;4958466;28;20054;-83
2022/12/12 08:19:34;;;;;;;24.48;10.10;;;;;;;;;;4974557;28;20037;-83
2022/12/12 08:22:00;;;;;;;30.95;11.18;;;;;;;;;;4955638;28;20023;-82
2022/12/12 08:24:27;;;;;;;25.58;9.90;;;;;;;;;;4957002;28;20050;-83
2022/12/12 08:26:53;;;;;;;27.85;10.10;;;;;;;;;;4976700;28;20038;-81
2022/12/12 08:29:19;;;;;;;21.52;9.10;;;;;;;;;;4958310;28;20117;-83
2022/12/12 08:31:46;;;;;;;24.92;9.98;;;;;;;;;;4973729;28;20133;-83
2022/12/12 08:34:12;;;;;;;22.95;9.80;;;;;;;;;;4976823;28;20054;-82
2022/12/12 08:36:38;;;;;;;27.23;10.60;;;;;;;;;;4962283;28;20039;-83
2022/12/12 08:39:06;;;;;;;29.65;11.10;;;;;;;;;;4978148;28;20413;-81
2022/12/12 08:41:33;;;;;;;27.77;10.88;;;;;;;;;;4980499;28;20046;-82
2022/12/12 08:43:59;;;;;;;23.75;9.98;;;;;;;;;;4961856;28;20035;-82
2022/12/12 08:46:25;;;;;;;27.92;10.13;;;;;;;;;;4965516;28;20042;-83
2022/12/12 08:48:51;;;;;;;24.85;10.07;;;;;;;;;;4963012;28;20196;-82
2022/12/12 08:51:17;;;;;;;26.50;9.82;;;;;;;;;;4944923;28;20035;-84
2022/12/12 08:53:44;;;;;;;25.85;9.40;;;;;;;;;;4979685;28;20035;-82
2022/12/12 08:56:11;;;;;;;24.25;10.15;;;;;;;;;;4976190;28;20129;-82
2022/12/12 08:58:37;;;;;;;27.23;10.40;;;;;;;;;;4967139;28;20039;-84
2022/12/12 09:01:03;;;;;;;26.17;9.85;;;;;;;;;;4951741;28;20031;-85
2022/12/12 09:03:29;;;;;;;23.95;10.40;;;;;;;;;;4984585;28;20035;-84
2022/12/12 09:05:55;;;;;;;25.17;10.15;;;;;;;;;;4966733;28;20038;-83
2022/12/12 09:08:27;;;;;;;30.30;10.55;;;;;;;;;;4974644;28;20058;-82
2022/12/12 09:10:53;;;;;;;28.77;10.68;;;;;;;;;;4972866;28;20105;-83
2022/12/12 09:13:19;;;;;;;26.25;10.93;;;;;;;;;;4972476;28;20027;-82
2022/12/12 09:15:49;;;;;;;23.42;9.65;;;;;;;;;;4984357;28;20098;-84
2022/12/12 09:18:15;;;;;;;25.15;10.32;;;;;;;;;;4944863;28;21019;-81
2022/12/12 09:20:41;;;;;;;25.17;10.50;;;;;;;;;;4956378;28;20061;-83
2022/12/12 09:23:22;;;;;;;24.38;9.40;;;;;;;;;;4951304;28;20042;-83
2022/12/12 09:25:49;;;;;;;27.13;11.15;;;;;;;;;;4954136;28;20039;-83
2022/12/12 09:28:19;;;;;;;26.50;10.32;;;;;;;;;;4973238;28;20030;-83
2022/12/12 09:30:48;;;;;;;23.63;10.23;;;;;;;;;;4958294;28;20023;-83
2022/12/12 09:33:17;;;;;;;25.38;10.35;;;;;;;;;;4966751;28;20043;-82
2022/12/12 09:36:07;;;;;;;25.83;9.93;;;;;;;;;;4979768;28;20127;-82
2022/12/12 09:38:43;;;;;;;25.23;10.48;;;;;;;;;;4954080;28;20046;-83
2022/12/12 09:41:09;;;;;;;25.25;9.43;;;;;;;;;;4982899;28;20066;-82
2022/12/12 09:43:43;;;;;;;26.17;9.55;;;;;;;;;;4971165;28;20031;-82
2022/12/12 09:47:04;;;;;;;22.80;9.57;;;;;;;;;;4965864;28;20049;-83
2022/12/12 09:49:24;;;;;;;25.10;10.38;;;;;;;;;;4973440;28;20035;-82
